Time;durP1;ratioP1;P1;durP2;ratioP2;P2;SDS_P1;SDS_P2;PMS_P1;PMS_P2;Temp;Humidity;BMP_temperature;BMP_pressure;BME280_temperature;BME280_humidity;BME280_pressure;Samples;Min_cycle;Max_cycle;Signal;HPM_P1;HPM_P2
2023/12/27 00:02:08;;;;;;;19.63;3.50;;;;;;;;;;4931323;28;20294;-68
2023/12/27 00:04:34;;;;;;;26.50;4.40;;;;;;;;;;4933210;28;20931;-68
2023/12/27 00:06:59;;;;;;;19.70;4.53;;;;;;;;;;4931515;28;20394;-68
2023/12/27 00:09:24;;;;;;;21.50;3.60;;;;;;;;;;4929127;28;20298;-68
2023/12/27 00:11:49;;;;;;;32.47;4.80;;;;;;;;;;4933034;28;20506;-68
2023/12/27 00:14:14;;;;;;;26.00;4.17;;;;;;;;;;4930880;28;20355;-68
2023/12/27 00:16:40;;;;;;;13.40;3.35;;;;;;;;;;4931226;28;20272;-68
2023/12/27 00:19:05;;;;;;;19.42;3.85;;;;;;;;;;4955793;28;20020;-69
2023/12/27 00:21:30;;;;;;;15.60;4.00;;;;;;;;;;4938922;28;20531;-68
2023/12/27 00:23:55;;;;;;;13.93;4.10;;;;;;;;;;4933075;28;20024;-68
2023/12/27 00:26:20;;;;;;;13.67;3.80;;;;;;;;;;4934402;28;20829;-68
2023/12/27 00:28:46;;;;;;;20.47;3.67;;;;;;;;;;4934775;28;20279;-68
2023/12/27 00:31:11;;;;;;;24.40;3.88;;;;;;;;;;4930120;28;20756;-68
2023/12/27 00:33:36;;;;;;;25.48;4.32;;;;;;;;;;4932204;28;20043;-69
2023/12/27 00:36:01;;;;;;;20.13;5.20;;;;;;;;;;4931338;28;20115;-69
2023/12/27 00:38:26;;;;;;;15.27;3.83;;;;;;;;;;4934429;28;20022;-68
2023/12/27 00:40:52;;;;;;;15.10;3.37;;;;;;;;;;4931740;28;20487;-68
2023/12/27 00:43:17;;;;;;;16.65;2.83;;;;;;;;;;4930656;28;20275;-68
2023/12/27 00:45:42;;;;;;;23.98;3.50;;;;;;;;;;4930587;28;20028;-68
2023/12/27 00:48:07;;;;;;;16.33;3.60;;;;;;;;;;4931722;28;20535;-68
2023/12/27 00:50:32;;;;;;;20.97;3.27;;;;;;;;;;4932105;28;20378;-68
2023/12/27 00:52:57;;;;;;;14.50;3.47;;;;;;;;;;4933580;28;20646;-68
2023/12/27 00:55:23;;;;;;;19.20;4.27;;;;;;;;;;4934083;28;20704;-68
2023/12/27 00:57:48;;;;;;;24.42;3.83;;;;;;;;;;4931728;28;20269;-68
2023/12/27 01:00:14;;;;;;;16.77;3.57;;;;;;;;;;4932920;28;20138;-68
2023/12/27 01:02:39;;;;;;;15.15;3.83;;;;;;;;;;4936734;28;20288;-68
2023/12/27 01:05:04;;;;;;;13.18;4.15;;;;;;;;;;4933228;28;20043;-69
2023/12/27 01:07:29;;;;;;;21.60;3.90;;;;;;;;;;4934023;28;20035;-68
2023/12/27 01:09:55;;;;;;;17.27;3.37;;;;;;;;;;4934154;28;20032;-68
2023/12/27 01:12:20;;;;;;;20.60;4.53;;;;;;;;;;4934949;28;20402;-68
2023/12/27 01:14:45;;;;;;;28.53;4.30;;;;;;;;;;4932716;28;20080;-68
2023/12/27 01:17:10;;;;;;;19.35;4.22;;;;;;;;;;4930475;28;20267;-68
2023/12/27 01:19:35;;;;;;;25.42;4.13;;;;;;;;;;4932221;28;20034;-69
2023/12/27 01:22:00;;;;;;;7.27;3.27;;;;;;;;;;4942333;28;20023;-68
2023/12/27 01:24:26;;;;;;;23.97;4.33;;;;;;;;;;4949609;28;20268;-68
2023/12/27 01:26:51;;;;;;;28.50;3.80;;;;;;;;;;4936350;28;20283;-68
2023/12/27 01:29:16;;;;;;;20.00;4.35;;;;;;;;;;4943489;28;20085;-68
2023/12/27 01:31:41;;;;;;;17.27;3.97;;;;;;;;;;4939742;28;20051;-68
2023/12/27 01:34:06;;;;;;;17.38;3.72;;;;;;;;;;4934041;28;20276;-68
2023/12/27 01:36:32;;;;;;;21.13;3.93;;;;;;;;;;4935375;28;20531;-69
2023/12/27 01:38:57;;;;;;;20.10;3.90;;;;;;;;;;4934770;28;20255;-69
2023/12/27 01:41:22;;;;;;;18.77;3.42;;;;;;;;;;4941090;28;20024;-69
2023/12/27 01:43:47;;;;;;;20.63;3.50;;;;;;;;;;4933781;28;20035;-68
2023/12/27 01:46:12;;;;;;;27.43;4.03;;;;;;;;;;4933811;28;20770;-69
2023/12/27 01:48:39;;;;;;;14.75;4.22;;;;;;;;;;4933712;28;20333;-68
2023/12/27 01:51:04;;;;;;;27.10;4.15;;;;;;;;;;4933390;28;20020;-68
2023/12/27 01:53:30;;;;;;;23.70;4.05;;;;;;;;;;4934856;28;20032;-68
2023/12/27 01:55:55;;;;;;;25.88;4.00;;;;;;;;;;4931958;28;20047;-68
2023/12/27 01:58:22;;;;;;;21.48;3.78;;;;;;;;;;4956553;28;20031;-68
2023/12/27 02:00:47;;;;;;;17.48;4.30;;;;;;;;;;4934456;28;20386;-68
2023/12/27 02:03:12;;;;;;;19.02;3.20;;;;;;;;;;4933088;28;20042;-68
2023/12/27 02:05:38;;;;;;;19.52;3.78;;;;;;;;;;4934698;28;20032;-68
2023/12/27 02:08:03;;;;;;;22.63;4.38;;;;;;;;;;4932828;28;20028;-68
2023/12/27 02:10:29;;;;;;;19.23;4.13;;;;;;;;;;4931536;28;20486;-68
2023/12/27 02:12:54;;;;;;;11.82;3.30;;;;;;;;;;4936216;28;20023;-68
2023/12/27 02:15:19;;;;;;;27.95;3.53;;;;;;;;;;4932354;28;20568;-68
2023/12/27 02:17:44;;;;;;;16.75;3.20;;;;;;;;;;4931647;28;20035;-68
2023/12/27 02:20:10;;;;;;;11.15;3.97;;;;;;;;;;4931207;28;20028;-68
2023/12/27 02:22:35;;;;;;;16.48;4.32;;;;;;;;;;4937215;28;20402;-68
2023/12/27 02:25:01;;;;;;;29.27;4.38;;;;;;;;;;4934119;28;20105;-68
2023/12/27 02:27:26;;;;;;;14.50;3.90;;;;;;;;;;4932466;28;20028;-68
2023/12/27 02:29:51;;;;;;;20.70;4.18;;;;;;;;;;4934527;28;20038;-68
2023/12/27 02:32:16;;;;;;;29.15;4.57;;;;;;;;;;4930804;28;20359;-68
2023/12/27 02:34:42;;;;;;;12.90;3.67;;;;;;;;;;4935119;28;20413;-68
2023/12/27 02:37:07;;;;;;;21.65;4.68;;;;;;;;;;4934684;28;20278;-68
2023/12/27 02:39:32;;;;;;;12.07;3.03;;;;;;;;;;4955181;28;20030;-68
2023/12/27 02:41:57;;;;;;;51.10;4.70;;;;;;;;;;4932203;28;20267;-68
2023/12/27 02:44:26;;;;;;;19.48;3.83;;;;;;;;;;4930669;28;20024;-68
2023/12/27 02:46:51;;;;;;;22.63;3.80;;;;;;;;;;4932965;28;20030;-68
2023/12/27 02:49:16;;;;;;;17.15;3.20;;;;;;;;;;4929751;28;20023;-69
2023/12/27 02:51:41;;;;;;;21.13;3.67;;;;;;;;;;4933879;28;20027;-68
2023/12/27 02:54:06;;;;;;;11.77;3.50;;;;;;;;;;4929745;28;20710;-69
2023/12/27 02:56:31;;;;;;;22.30;3.67;;;;;;;;;;4931337;28;20330;-68
2023/12/27 02:58:57;;;;;;;23.70;3.40;;;;;;;;;;4931204;28;20274;-69
2023/12/27 03:01:22;;;;;;;25.52;4.97;;;;;;;;;;4936422;28;20283;-68
2023/12/27 03:03:47;;;;;;;24.20;3.43;;;;;;;;;;4945242;28;20030;-69
2023/12/27 03:06:12;;;;;;;8.17;2.63;;;;;;;;;;4931093;28;20848;-68
2023/12/27 03:08:37;;;;;;;26.03;3.77;;;;;;;;;;4932429;28;20268;-68
2023/12/27 03:11:03;;;;;;;18.80;3.67;;;;;;;;;;4930229;28;20386;-68
2023/12/27 03:13:28;;;;;;;15.40;3.65;;;;;;;;;;4934267;28;20313;-68
2023/12/27 03:15:53;;;;;;;27.17;4.47;;;;;;;;;;4935343;28;20089;-69
2023/12/27 03:18:18;;;;;;;23.25;3.25;;;;;;;;;;4933832;28;20339;-68
2023/12/27 03:20:43;;;;;;;24.93;3.93;;;;;;;;;;4933409;28;20073;-68
2023/12/27 03:23:08;;;;;;;20.30;3.63;;;;;;;;;;4931032;28;20268;-68
2023/12/27 03:25:34;;;;;;;12.73;3.50;;;;;;;;;;4933189;28;20275;-68
2023/12/27 03:27:59;;;;;;;16.63;3.43;;;;;;;;;;4935185;28;20259;-69
2023/12/27 03:30:24;;;;;;;12.35;3.25;;;;;;;;;;4933474;28;20298;-68
2023/12/27 03:32:49;;;;;;;12.17;2.83;;;;;;;;;;4933212;28;20030;-68
2023/12/27 03:35:14;;;;;;;20.13;3.50;;;;;;;;;;4933415;28;20280;-68
2023/12/27 03:37:39;;;;;;;22.77;3.60;;;;;;;;;;4930309;28;20031;-69
2023/12/27 03:40:05;;;;;;;13.15;3.20;;;;;;;;;;4932178;28;20280;-68
2023/12/27 03:42:30;;;;;;;14.70;3.40;;;;;;;;;;4932364;28;20028;-68
2023/12/27 03:44:55;;;;;;;19.67;3.07;;;;;;;;;;4936794;28;20038;-68
2023/12/27 03:47:21;;;;;;;14.93;2.80;;;;;;;;;;4934830;28;20778;-68
2023/12/27 03:49:46;;;;;;;9.38;3.03;;;;;;;;;;4928186;28;20275;-69
2023/12/27 03:52:11;;;;;;;24.02;4.03;;;;;;;;;;4927731;28;20079;-68
2023/12/27 03:54:37;;;;;;;19.98;3.47;;;;;;;;;;4940464;28;20058;-68
2023/12/27 03:57:02;;;;;;;12.40;2.92;;;;;;;;;;4939153;28;20027;-69
2023/12/27 03:59:27;;;;;;;13.80;3.17;;;;;;;;;;4938562;28;20012;-68
2023/12/27 04:01:53;;;;;;;24.93;4.13;;;;;;;;;;4937423;28;20057;-68
2023/12/27 04:04:18;;;;;;;20.33;3.35;;;;;;;;;;4938260;28;20275;-69
2023/12/27 04:06:44;;;;;;;12.48;2.70;;;;;;;;;;4938435;28;20122;-68
2023/12/27 04:09:09;;;;;;;24.63;4.95;;;;;;;;;;4937230;28;20024;-68
2023/12/27 04:11:41;;;;;;;21.63;3.40;;;;;;;;;;4935636;28;20096;-68
2023/12/27 04:14:07;;;;;;;9.65;3.45;;;;;;;;;;4938334;28;20313;-68
2023/12/27 04:16:32;;;;;;;21.00;4.33;;;;;;;;;;4939866;28;20471;-68
2023/12/27 04:18:57;;;;;;;21.57;3.10;;;;;;;;;;4939347;28;20267;-68
2023/12/27 04:21:22;;;;;;;23.52;3.53;;;;;;;;;;4936312;28;20358;-68
2023/12/27 04:23:48;;;;;;;15.88;3.38;;;;;;;;;;4945098;28;20034;-68
2023/12/27 04:26:13;;;;;;;20.07;3.20;;;;;;;;;;4939033;28;20069;-68
2023/12/27 04:28:38;;;;;;;17.93;3.53;;;;;;;;;;4940695;28;20275;-69
2023/12/27 04:31:03;;;;;;;15.48;3.25;;;;;;;;;;4936493;28;20287;-68
2023/12/27 04:33:28;;;;;;;15.80;3.20;;;;;;;;;;4941178;28;20429;-69
2023/12/27 04:35:53;;;;;;;15.68;3.10;;;;;;;;;;4950331;28;20031;-68
2023/12/27 04:38:19;;;;;;;10.25;3.25;;;;;;;;;;4937968;28;20034;-69
2023/12/27 04:40:47;;;;;;;22.90;3.25;;;;;;;;;;4939843;28;20030;-68
2023/12/27 04:43:13;;;;;;;24.67;4.22;;;;;;;;;;4938676;28;20407;-68
2023/12/27 04:45:38;;;;;;;20.58;4.60;;;;;;;;;;4959588;28;20313;-68
2023/12/27 04:48:03;;;;;;;17.50;3.13;;;;;;;;;;4941997;28;20023;-68
2023/12/27 04:50:28;;;;;;;22.98;2.88;;;;;;;;;;4936877;28;20977;-68
2023/12/27 04:52:53;;;;;;;15.97;3.00;;;;;;;;;;4942953;28;20046;-68
2023/12/27 04:55:18;;;;;;;17.03;3.20;;;;;;;;;;4937637;28;20280;-68
2023/12/27 04:57:44;;;;;;;15.47;2.67;;;;;;;;;;4936359;28;20294;-68
2023/12/27 05:00:09;;;;;;;16.90;3.47;;;;;;;;;;4936235;28;20278;-68
2023/12/27 05:02:34;;;;;;;16.58;3.22;;;;;;;;;;4936642;28;20027;-68
2023/12/27 05:04:59;;;;;;;24.30;3.53;;;;;;;;;;4952869;28;20035;-68
2023/12/27 05:07:24;;;;;;;16.57;3.20;;;;;;;;;;4933373;28;20365;-68
2023/12/27 05:09:50;;;;;;;20.20;4.63;;;;;;;;;;4934366;28;20662;-68
2023/12/27 05:12:15;;;;;;;15.20;3.33;;;;;;;;;;4935549;28;20040;-68
2023/12/27 05:14:40;;;;;;;15.20;3.15;;;;;;;;;;4938209;28;20107;-68
2023/12/27 05:17:05;;;;;;;9.53;3.57;;;;;;;;;;4935278;28;20054;-68
2023/12/27 05:19:30;;;;;;;12.38;2.60;;;;;;;;;;4934316;28;20272;-68
2023/12/27 05:21:55;;;;;;;16.73;3.10;;;;;;;;;;4936100;28;20035;-68
2023/12/27 05:24:21;;;;;;;23.37;2.87;;;;;;;;;;4934964;28;20032;-68
2023/12/27 05:26:46;;;;;;;24.20;3.90;;;;;;;;;;4935445;28;20279;-68
2023/12/27 05:29:11;;;;;;;18.17;2.47;;;;;;;;;;4934170;28;20272;-68
2023/12/27 05:31:36;;;;;;;20.52;3.58;;;;;;;;;;4936404;28;20288;-68
2023/12/27 05:34:02;;;;;;;13.85;3.15;;;;;;;;;;4935509;28;20031;-68
2023/12/27 05:36:27;;;;;;;10.43;3.10;;;;;;;;;;4938172;28;20028;-68
2023/12/27 05:38:52;;;;;;;8.50;1.90;;;;;;;;;;4933320;28;20027;-68
2023/12/27 05:41:21;;;;;;;15.63;3.35;;;;;;;;;;4933926;28;20035;-68
2023/12/27 05:43:46;;;;;;;28.13;2.88;;;;;;;;;;4933956;28;20097;-68
2023/12/27 05:46:12;;;;;;;21.20;4.18;;;;;;;;;;4938284;28;20035;-68
2023/12/27 05:48:37;;;;;;;16.00;3.40;;;;;;;;;;4939465;28;20059;-68
2023/12/27 05:51:02;;;;;;;12.50;3.15;;;;;;;;;;4938902;28;20290;-68
2023/12/27 05:53:28;;;;;;;15.98;3.90;;;;;;;;;;4934179;28;20106;-68
2023/12/27 05:55:54;;;;;;;11.82;3.00;;;;;;;;;;4932685;28;20051;-68
2023/12/27 05:58:19;;;;;;;21.63;4.53;;;;;;;;;;4935250;28;20055;-68
2023/12/27 06:00:44;;;;;;;15.43;3.10;;;;;;;;;;4939600;28;20126;-68
2023/12/27 06:03:10;;;;;;;5.18;1.52;;;;;;;;;;4936896;28;20279;-68
2023/12/27 06:05:36;;;;;;;18.63;3.67;;;;;;;;;;4936059;28;20024;-68
2023/12/27 06:08:03;;;;;;;13.25;2.58;;;;;;;;;;4928116;28;20519;-68
2023/12/27 06:10:28;;;;;;;12.93;3.42;;;;;;;;;;4939925;28;20030;-68
2023/12/27 06:12:53;;;;;;;6.20;2.75;;;;;;;;;;4936158;28;20020;-68
2023/12/27 06:15:18;;;;;;;11.17;2.77;;;;;;;;;;4939692;28;20035;-68
2023/12/27 06:17:43;;;;;;;12.40;4.22;;;;;;;;;;4933928;28;20286;-68
2023/12/27 06:20:09;;;;;;;4.53;1.63;;;;;;;;;;4934356;28;20065;-68
2023/12/27 06:22:34;;;;;;;17.05;3.28;;;;;;;;;;4936565;28;20984;-68
2023/12/27 06:24:59;;;;;;;17.33;3.47;;;;;;;;;;4931656;28;20027;-68
2023/12/27 06:27:24;;;;;;;13.00;4.30;;;;;;;;;;4929834;28;20279;-68
2023/12/27 06:29:50;;;;;;;14.65;3.97;;;;;;;;;;4937703;28;20286;-68
2023/12/27 06:32:15;;;;;;;19.40;4.10;;;;;;;;;;4954206;28;20022;-68
2023/12/27 06:34:40;;;;;;;6.05;2.65;;;;;;;;;;4937792;28;20062;-68
2023/12/27 06:37:05;;;;;;;7.27;2.00;;;;;;;;;;4929887;28;20031;-68
2023/12/27 06:39:30;;;;;;;7.40;2.50;;;;;;;;;;4932178;28;20263;-68
2023/12/27 06:41:56;;;;;;;20.50;3.67;;;;;;;;;;4935273;28;20275;-68
2023/12/27 06:44:21;;;;;;;17.25;4.05;;;;;;;;;;4931030;28;20028;-68
2023/12/27 06:46:46;;;;;;;14.57;3.93;;;;;;;;;;4937370;28;20105;-68
2023/12/27 06:49:11;;;;;;;3.57;1.97;;;;;;;;;;4935572;28;20290;-68
2023/12/27 06:51:36;;;;;;;11.97;2.87;;;;;;;;;;4939979;28;20374;-68
2023/12/27 06:54:01;;;;;;;6.83;1.83;;;;;;;;;;4930570;28;20291;-68
2023/12/27 06:56:27;;;;;;;5.68;2.08;;;;;;;;;;4932319;28;20358;-68
2023/12/27 06:58:52;;;;;;;5.70;2.60;;;;;;;;;;4936399;28;20035;-68
2023/12/27 07:01:17;;;;;;;11.05;2.70;;;;;;;;;;4933000;28;20279;-68
2023/12/27 07:03:42;;;;;;;3.40;1.83;;;;;;;;;;4937592;28;20019;-68
2023/12/27 07:06:08;;;;;;;5.20;1.80;;;;;;;;;;4927751;28;20043;-68
2023/12/27 07:08:33;;;;;;;13.40;1.98;;;;;;;;;;4932465;28;20279;-68
2023/12/27 07:10:59;;;;;;;4.07;1.27;;;;;;;;;;4934755;28;20038;-68
2023/12/27 07:13:24;;;;;;;10.83;3.13;;;;;;;;;;4935317;28;20063;-68
2023/12/27 07:15:49;;;;;;;20.70;3.33;;;;;;;;;;4933310;28;20629;-68
2023/12/27 07:18:14;;;;;;;13.07;1.90;;;;;;;;;;4931361;28;20287;-68
2023/12/27 07:20:40;;;;;;;1.48;0.77;;;;;;;;;;4937425;28;20259;-68
2023/12/27 07:23:05;;;;;;;1.88;1.00;;;;;;;;;;4935643;28;20051;-68
2023/12/27 07:25:30;;;;;;;11.63;4.33;;;;;;;;;;4932756;28;20081;-68
2023/12/27 07:27:56;;;;;;;5.43;2.38;;;;;;;;;;4937094;28;20915;-68
2023/12/27 07:30:21;;;;;;;11.07;2.88;;;;;;;;;;4934962;28;20036;-68
2023/12/27 07:32:46;;;;;;;12.23;2.90;;;;;;;;;;4934360;28;20023;-68
2023/12/27 07:35:11;;;;;;;10.93;2.27;;;;;;;;;;4935019;28;20259;-68
2023/12/27 07:37:37;;;;;;;3.00;1.30;;;;;;;;;;4932621;28;20682;-68
2023/12/27 07:40:03;;;;;;;5.57;1.95;;;;;;;;;;4932301;28;20340;-68
2023/12/27 07:42:28;;;;;;;9.35;2.17;;;;;;;;;;4933706;28;20160;-68
2023/12/27 07:44:53;;;;;;;14.63;2.13;;;;;;;;;;4934412;28;20416;-68
2023/12/27 07:47:18;;;;;;;3.10;1.40;;;;;;;;;;4927625;28;20280;-68
2023/12/27 07:49:44;;;;;;;3.40;1.87;;;;;;;;;;4946909;28;20035;-68
2023/12/27 07:52:09;;;;;;;8.43;1.47;;;;;;;;;;4931491;28;20688;-68
2023/12/27 07:54:37;;;;;;;9.27;2.53;;;;;;;;;;4927518;28;20282;-68
2023/12/27 07:57:02;;;;;;;11.68;2.53;;;;;;;;;;4924324;28;20351;-68
2023/12/27 07:59:27;;;;;;;7.68;2.30;;;;;;;;;;4926930;28;20141;-68
2023/12/27 08:01:53;;;;;;;6.30;1.95;;;;;;;;;;4923862;28;20522;-68
2023/12/27 08:04:18;;;;;;;13.05;2.45;;;;;;;;;;4924414;28;20110;-68
2023/12/27 08:06:45;;;;;;;10.32;2.10;;;;;;;;;;4933442;28;20042;-68
2023/12/27 08:09:11;;;;;;;3.42;1.10;;;;;;;;;;4931795;28;20612;-67
2023/12/27 08:11:36;;;;;;;7.13;2.40;;;;;;;;;;4937114;28;20034;-67
2023/12/27 08:14:02;;;;;;;9.73;2.07;;;;;;;;;;4933840;28;20147;-68
2023/12/27 08:16:27;;;;;;;5.50;1.30;;;;;;;;;;4934033;28;20287;-68
2023/12/27 08:18:53;;;;;;;4.70;1.63;;;;;;;;;;4937424;28;20107;-67
2023/12/27 08:21:18;;;;;;;11.18;1.73;;;;;;;;;;4939946;28;20290;-67
2023/12/27 08:23:43;;;;;;;4.30;1.40;;;;;;;;;;4931007;28;20040;-67
2023/12/27 08:26:09;;;;;;;2.92;1.42;;;;;;;;;;4932871;28;20902;-67
2023/12/27 08:28:35;;;;;;;6.07;1.75;;;;;;;;;;4937935;28;20032;-67
2023/12/27 08:31:00;;;;;;;3.50;1.20;;;;;;;;;;4932707;28;20030;-68
2023/12/27 08:33:25;;;;;;;4.65;1.67;;;;;;;;;;4927176;28;20016;-68
2023/12/27 08:35:51;;;;;;;7.43;1.40;;;;;;;;;;4931725;28;20107;-68
2023/12/27 08:38:16;;;;;;;6.57;1.80;;;;;;;;;;4931866;28;20274;-68
2023/12/27 08:40:41;;;;;;;5.20;1.60;;;;;;;;;;4929565;28;20384;-68
2023/12/27 08:43:06;;;;;;;7.57;2.03;;;;;;;;;;4942242;28;20294;-68
2023/12/27 08:45:31;;;;;;;8.25;1.75;;;;;;;;;;4930394;28;20302;-68
2023/12/27 08:47:56;;;;;;;8.83;1.73;;;;;;;;;;4945590;28;20042;-68
2023/12/27 08:50:22;;;;;;;6.07;1.33;;;;;;;;;;4933316;28;20295;-68
2023/12/27 08:52:47;;;;;;;4.77;1.73;;;;;;;;;;4938366;28;20283;-68
2023/12/27 08:55:12;;;;;;;2.00;1.27;;;;;;;;;;4935064;28;21367;-68
2023/12/27 08:57:37;;;;;;;5.13;2.08;;;;;;;;;;4943697;28;20267;-68
2023/12/27 09:00:05;;;;;;;5.25;1.42;;;;;;;;;;4936725;28;20548;-69
2023/12/27 09:02:30;;;;;;;0.63;0.60;;;;;;;;;;4947571;28;20036;-66
2023/12/27 09:04:56;;;;;;;6.53;1.40;;;;;;;;;;4941262;28;20114;-68
2023/12/27 09:07:21;;;;;;;3.28;1.13;;;;;;;;;;4933374;28;20111;-68
2023/12/27 09:09:46;;;;;;;4.17;1.00;;;;;;;;;;4939707;28;20788;-68
2023/12/27 09:12:11;;;;;;;3.58;1.13;;;;;;;;;;4931867;28;20298;-68
2023/12/27 09:14:39;;;;;;;4.87;2.23;;;;;;;;;;4934460;28;20283;-68
2023/12/27 09:17:05;;;;;;;0.68;0.52;;;;;;;;;;4933314;28;20279;-68
2023/12/27 09:19:30;;;;;;;3.13;0.82;;;;;;;;;;4938420;28;20016;-68
2023/12/27 09:21:55;;;;;;;3.90;1.57;;;;;;;;;;4932969;28;20058;-67
2023/12/27 09:24:20;;;;;;;1.37;0.73;;;;;;;;;;4932832;28;20638;-67
2023/12/27 09:26:46;;;;;;;11.88;0.77;;;;;;;;;;4937330;28;20283;-67
2023/12/27 09:29:12;;;;;;;3.90;1.70;;;;;;;;;;4933021;28;20412;-67
2023/12/27 09:31:37;;;;;;;3.07;1.13;;;;;;;;;;4934016;28;20034;-67
2023/12/27 09:34:02;;;;;;;6.50;1.42;;;;;;;;;;4931908;28;20263;-69
2023/12/27 09:36:28;;;;;;;3.72;1.52;;;;;;;;;;4935805;28;20078;-69
2023/12/27 09:38:53;;;;;;;2.35;1.40;;;;;;;;;;4938103;28;20046;-68
2023/12/27 09:41:19;;;;;;;3.42;1.05;;;;;;;;;;4948707;28;20416;-68
2023/12/27 09:43:45;;;;;;;2.00;0.93;;;;;;;;;;4940119;28;20125;-68
2023/12/27 09:46:12;;;;;;;6.90;1.77;;;;;;;;;;4931856;28;20089;-68
2023/12/27 09:48:38;;;;;;;4.20;2.28;;;;;;;;;;4931724;28;20055;-67
2023/12/27 09:51:04;;;;;;;2.10;1.02;;;;;;;;;;4936878;28;20031;-68
2023/12/27 09:53:29;;;;;;;1.48;1.10;;;;;;;;;;4936073;28;20075;-68
2023/12/27 09:55:55;;;;;;;3.38;0.93;;;;;;;;;;4933002;28;20047;-68
2023/12/27 09:58:21;;;;;;;5.10;1.65;;;;;;;;;;4928424;28;20030;-68
2023/12/27 10:00:47;;;;;;;2.22;0.90;;;;;;;;;;4932811;28;20485;-68
2023/12/27 10:03:14;;;;;;;2.80;1.30;;;;;;;;;;4934648;28;20544;-69
2023/12/27 10:05:50;;;;;;;0.45;0.45;;;;;;;;;;4927839;28;20028;-68
2023/12/27 10:08:15;;;;;;;3.10;1.23;;;;;;;;;;4935139;28;20371;-68
2023/12/27 10:10:42;;;;;;;1.65;1.10;;;;;;;;;;4943151;28;20027;-68
2023/12/27 10:13:07;;;;;;;5.75;1.73;;;;;;;;;;4932958;28;20019;-68
2023/12/27 10:15:33;;;;;;;1.92;0.90;;;;;;;;;;4931248;28;20015;-68
2023/12/27 10:17:58;;;;;;;5.93;0.93;;;;;;;;;;4930826;28;20107;-68
2023/12/27 10:20:29;;;;;;;3.22;0.80;;;;;;;;;;4929835;28;20940;-68
2023/12/27 10:22:54;;;;;;;3.00;1.45;;;;;;;;;;4929864;28;20031;-66
2023/12/27 10:25:20;;;;;;;0.90;0.50;;;;;;;;;;4934420;28;20033;-66
2023/12/27 10:27:45;;;;;;;2.03;1.00;;;;;;;;;;4935009;28;20657;-69
2023/12/27 10:30:13;;;;;;;2.10;0.60;;;;;;;;;;4936865;28;20050;-67
2023/12/27 10:32:39;;;;;;;2.35;1.02;;;;;;;;;;4954889;28;20814;-67
2023/12/27 10:35:04;;;;;;;14.85;4.25;;;;;;;;;;4936178;28;20162;-67
2023/12/27 10:37:30;;;;;;;11.43;2.97;;;;;;;;;;4935860;28;20023;-67
2023/12/27 10:39:56;;;;;;;8.25;2.35;;;;;;;;;;4930003;28;20024;-67
2023/12/27 10:42:27;;;;;;;1.13;0.43;;;;;;;;;;4937460;28;20015;-67
2023/12/27 10:44:53;;;;;;;5.57;1.35;;;;;;;;;;4944730;28;20394;-66
2023/12/27 10:47:18;;;;;;;1.95;0.80;;;;;;;;;;4934287;28;20027;-66
2023/12/27 10:49:47;;;;;;;1.10;0.73;;;;;;;;;;4947057;28;20035;-67
2023/12/27 10:52:13;;;;;;;1.15;0.77;;;;;;;;;;4949863;28;20025;-67
2023/12/27 10:54:42;;;;;;;5.10;1.80;;;;;;;;;;4931800;28;20430;-66
2023/12/27 10:57:12;;;;;;;4.15;1.30;;;;;;;;;;4935159;28;20113;-67
2023/12/27 10:59:38;;;;;;;3.20;1.05;;;;;;;;;;4941636;28;20485;-66
2023/12/27 11:02:06;;;;;;;0.90;0.70;;;;;;;;;;4942331;28;20035;-67
2023/12/27 11:04:31;;;;;;;0.20;0.20;;;;;;;;;;4938455;28;20383;-66
2023/12/27 11:06:58;;;;;;;2.78;1.42;;;;;;;;;;4928659;28;20050;-67
2023/12/27 11:09:28;;;;;;;3.60;1.05;;;;;;;;;;4941655;28;20569;-67
2023/12/27 11:11:55;;;;;;;3.42;0.88;;;;;;;;;;4928270;28;20032;-68
2023/12/27 11:14:24;;;;;;;2.05;1.25;;;;;;;;;;4934019;28;20020;-68
2023/12/27 11:16:52;;;;;;;1.85;1.10;;;;;;;;;;4934332;28;20032;-68
2023/12/27 11:19:19;;;;;;;1.42;0.80;;;;;;;;;;4924683;28;20102;-67
2023/12/27 11:21:45;;;;;;;0.57;0.57;;;;;;;;;;4935557;28;20105;-67
2023/12/27 11:24:11;;;;;;;4.93;0.80;;;;;;;;;;4932035;28;20024;-67
2023/12/27 11:26:37;;;;;;;3.05;0.93;;;;;;;;;;4935021;28;20095;-67
2023/12/27 11:29:06;;;;;;;5.15;0.98;;;;;;;;;;4925585;28;20016;-67
2023/12/27 11:31:32;;;;;;;3.13;0.83;;;;;;;;;;4927049;28;20662;-67
2023/12/27 11:33:58;;;;;;;0.85;0.63;;;;;;;;;;4930279;28;20031;-66
2023/12/27 11:36:24;;;;;;;1.05;0.70;;;;;;;;;;4928028;28;20023;-68
2023/12/27 11:38:50;;;;;;;2.03;0.68;;;;;;;;;;4934116;28;20030;-67
2023/12/27 11:41:15;;;;;;;1.17;0.82;;;;;;;;;;4927371;28;20027;-67
2023/12/27 11:43:55;;;;;;;7.43;0.57;;;;;;;;;;4938887;28;20047;-67
2023/12/27 11:46:23;;;;;;;4.05;0.70;;;;;;;;;;4930667;28;20256;-67
2023/12/27 11:48:49;;;;;;;0.80;0.55;;;;;;;;;;4926307;28;20089;-68
2023/12/27 11:51:32;;;;;;;2.97;1.03;;;;;;;;;;4930128;28;20032;-68
2023/12/27 11:53:57;;;;;;;4.13;1.02;;;;;;;;;;4928016;28;20306;-68
2023/12/27 11:56:24;;;;;;;2.30;0.90;;;;;;;;;;4931764;28;20126;-69
2023/12/27 11:58:49;;;;;;;2.92;0.80;;;;;;;;;;4932254;28;20131;-69
2023/12/27 12:01:30;;;;;;;0.73;0.55;;;;;;;;;;4929148;28;20139;-68
2023/12/27 12:04:02;;;;;;;1.95;1.00;;;;;;;;;;4930362;28;20028;-68
2023/12/27 12:06:46;;;;;;;0.52;0.40;;;;;;;;;;4932579;28;20028;-69
2023/12/27 12:09:12;;;;;;;1.45;0.43;;;;;;;;;;4930365;28;20470;-69
2023/12/27 12:11:37;;;;;;;1.10;0.30;;;;;;;;;;4931947;28;20035;-68
2023/12/27 12:14:04;;;;;;;10.30;1.77;;;;;;;;;;4930788;28;20158;-68
2023/12/27 12:16:32;;;;;;;1.67;0.80;;;;;;;;;;4924204;28;20031;-67
2023/12/27 12:18:58;;;;;;;0.60;0.52;;;;;;;;;;4932533;28;20020;-67
2023/12/27 12:21:23;;;;;;;2.78;1.02;;;;;;;;;;4934294;28;20027;-67
2023/12/27 12:23:48;;;;;;;2.07;0.27;;;;;;;;;;4935893;28;20024;-67
2023/12/27 12:26:14;;;;;;;1.37;0.50;;;;;;;;;;4927398;28;20774;-67
2023/12/27 12:28:39;;;;;;;1.13;0.60;;;;;;;;;;4935067;28;20268;-67
2023/12/27 12:31:05;;;;;;;0.45;0.32;;;;;;;;;;4932690;28;20027;-67
2023/12/27 12:33:30;;;;;;;1.30;0.67;;;;;;;;;;4939139;28;20046;-67
2023/12/27 12:35:55;;;;;;;4.33;1.80;;;;;;;;;;4933769;28;20046;-67
2023/12/27 12:38:23;;;;;;;3.17;0.98;;;;;;;;;;4935799;28;20266;-67
2023/12/27 12:40:49;;;;;;;0.82;0.63;;;;;;;;;;4933317;28;20035;-67
2023/12/27 12:43:14;;;;;;;1.38;0.65;;;;;;;;;;4936968;28;20031;-68
2023/12/27 12:45:39;;;;;;;1.08;0.63;;;;;;;;;;4944026;28;20053;-69
2023/12/27 12:48:05;;;;;;;1.08;0.43;;;;;;;;;;4941839;28;20121;-69
2023/12/27 12:50:30;;;;;;;2.92;0.73;;;;;;;;;;4937841;28;20066;-68
2023/12/27 12:52:55;;;;;;;3.77;0.77;;;;;;;;;;4939455;28;20050;-69
2023/12/27 12:55:28;;;;;;;1.00;0.55;;;;;;;;;;4938867;28;20268;-68
2023/12/27 12:57:53;;;;;;;2.72;0.77;;;;;;;;;;4930622;28;20029;-68
2023/12/27 13:00:22;;;;;;;1.20;0.90;;;;;;;;;;4929620;28;20023;-68
2023/12/27 13:02:47;;;;;;;4.50;1.05;;;;;;;;;;4934517;28;20256;-68
2023/12/27 13:05:13;;;;;;;1.05;0.68;;;;;;;;;;4931856;28;20552;-68
2023/12/27 13:07:38;;;;;;;2.17;1.00;;;;;;;;;;4935149;28;20264;-69
2023/12/27 13:10:05;;;;;;;4.57;0.98;;;;;;;;;;4935254;28;20031;-68
2023/12/27 13:12:31;;;;;;;5.20;0.60;;;;;;;;;;4934363;28;20012;-70
2023/12/27 13:14:57;;;;;;;1.38;0.65;;;;;;;;;;4935106;28;20114;-68
2023/12/27 13:17:23;;;;;;;2.40;0.68;;;;;;;;;;4933290;28;20371;-69
2023/12/27 13:19:48;;;;;;;0.73;0.67;;;;;;;;;;4950104;28;20080;-68
2023/12/27 13:22:13;;;;;;;0.77;0.55;;;;;;;;;;4936748;28;20272;-68
2023/12/27 13:24:39;;;;;;;1.27;0.65;;;;;;;;;;4936931;28;20023;-69
2023/12/27 13:27:05;;;;;;;0.63;0.40;;;;;;;;;;4941319;28;20035;-69
2023/12/27 13:29:30;;;;;;;0.93;0.30;;;;;;;;;;4940892;28;20391;-69
2023/12/27 13:31:55;;;;;;;5.23;0.90;;;;;;;;;;4947624;28;20027;-68
2023/12/27 13:34:20;;;;;;;0.60;0.40;;;;;;;;;;4939079;28;20291;-68
2023/12/27 13:36:45;;;;;;;6.10;0.70;;;;;;;;;;4938854;28;20418;-68
2023/12/27 13:39:13;;;;;;;1.90;0.93;;;;;;;;;;4937454;28;20271;-68
2023/12/27 13:41:38;;;;;;;7.28;1.10;;;;;;;;;;4939739;28;20267;-70
2023/12/27 13:44:03;;;;;;;9.88;3.80;;;;;;;;;;4941163;28;20035;-68
2023/12/27 13:46:29;;;;;;;1.23;1.00;;;;;;;;;;4930536;28;20398;-69
2023/12/27 13:48:54;;;;;;;2.83;1.23;;;;;;;;;;4930337;28;20075;-68
2023/12/27 13:51:19;;;;;;;1.30;0.83;;;;;;;;;;4940782;28;20070;-69
2023/12/27 13:53:44;;;;;;;2.63;1.13;;;;;;;;;;4940255;28;20347;-68
2023/12/27 13:56:10;;;;;;;1.60;0.87;;;;;;;;;;4941624;28;20023;-68
2023/12/27 13:58:35;;;;;;;4.18;1.38;;;;;;;;;;4936914;28;20256;-68
2023/12/27 14:01:00;;;;;;;3.55;0.60;;;;;;;;;;4951235;28;20479;-69
2023/12/27 14:03:29;;;;;;;2.05;0.88;;;;;;;;;;4945171;28;20515;-68
2023/12/27 14:05:55;;;;;;;10.60;0.80;;;;;;;;;;4935841;28;20035;-68
2023/12/27 14:08:20;;;;;;;4.00;1.20;;;;;;;;;;4938526;28;20031;-69
2023/12/27 14:10:45;;;;;;;3.23;1.13;;;;;;;;;;4937903;28;20837;-68
2023/12/27 14:13:11;;;;;;;3.80;0.65;;;;;;;;;;4935523;28;20267;-69
2023/12/27 14:15:36;;;;;;;2.73;1.00;;;;;;;;;;4942358;28;20015;-69
2023/12/27 14:18:01;;;;;;;2.60;1.30;;;;;;;;;;4937520;28;20307;-68
2023/12/27 14:20:27;;;;;;;3.83;1.08;;;;;;;;;;4939821;28;20260;-69
2023/12/27 14:22:52;;;;;;;1.08;0.95;;;;;;;;;;4942645;28;20079;-68
2023/12/27 14:25:17;;;;;;;6.60;1.73;;;;;;;;;;4940521;28;20043;-68
2023/12/27 14:27:42;;;;;;;5.07;0.75;;;;;;;;;;4936976;28;20276;-68